Time;durP1;ratioP1;P1;durP2;ratioP2;P2;SDS_P1;SDS_P2;PMS_P1;PMS_P2;Temp;Humidity;BMP_temperature;BMP_pressure;BME280_temperature;BME280_humidity;BME280_pressure;Samples;Min_cycle;Max_cycle;Signal;HPM_P1;HPM_P2
2021/06/21 00:00:20;;;;;;;5.93;2.30;;;;;;;16.66;53.07;100867.03;3558558;40;20661;-76
2021/06/21 00:02:47;;;;;;;6.65;1.75;;;;;;;16.60;52.54;100862.91;3553692;40;20054;-76
2021/06/21 00:05:17;;;;;;;7.23;2.40;;;;;;;16.58;52.09;100861.25;3562271;40;20054;-76
2021/06/21 00:07:45;;;;;;;5.03;1.77;;;;;;;16.52;52.33;100866.78;3561377;40;20441;-75
2021/06/21 00:10:14;;;;;;;4.35;1.63;;;;;;;16.41;51.63;100858.50;3565501;40;20860;-76
2021/06/21 00:12:44;;;;;;;6.07;2.03;;;;;;;16.37;52.12;100864.84;3562855;40;20065;-76
2021/06/21 00:15:16;;;;;;;5.13;1.92;;;;;;;16.31;51.89;100865.97;3558124;40;20115;-76
2021/06/21 00:17:45;;;;;;;6.72;1.75;;;;;;;16.27;51.58;100867.91;3561951;40;20076;-76
2021/06/21 00:20:17;;;;;;;3.88;1.60;;;;;;;16.23;51.71;100868.94;3564338;40;20071;-76
2021/06/21 00:22:45;;;;;;;5.00;1.52;;;;;;;16.15;52.38;100870.19;3557029;40;20140;-75
2021/06/21 00:25:13;;;;;;;6.50;2.08;;;;;;;16.09;52.32;100880.06;3564785;40;20833;-76
2021/06/21 00:27:40;;;;;;;4.78;1.85;;;;;;;15.99;52.21;100872.63;3553033;40;20101;-76
2021/06/21 00:30:15;;;;;;;4.55;1.60;;;;;;;16.00;50.77;100880.47;3557588;40;20065;-76
2021/06/21 00:32:46;;;;;;;6.93;1.77;;;;;;;15.97;51.84;100891.13;3554083;40;20060;-76
2021/06/21 00:35:15;;;;;;;6.43;1.83;;;;;;;15.89;51.87;100881.84;3557282;40;20053;-76
2021/06/21 00:37:44;;;;;;;4.47;1.63;;;;;;;15.89;51.89;100890.59;3554549;40;20101;-76
2021/06/21 00:40:12;;;;;;;6.78;1.77;;;;;;;15.86;52.02;100889.84;3554435;40;20081;-76
2021/06/21 00:42:44;;;;;;;3.80;1.38;;;;;;;15.81;51.65;100893.56;3567983;40;20434;-76
2021/06/21 00:45:12;;;;;;;3.17;1.13;;;;;;;15.81;51.95;100887.41;3549379;40;20072;-76
2021/06/21 00:47:41;;;;;;;2.80;1.23;;;;;;;15.78;51.78;100892.81;3568663;40;20097;-76
2021/06/21 00:50:09;;;;;;;4.00;1.23;;;;;;;15.76;51.93;100895.53;3565223;40;20166;-76
2021/06/21 00:52:42;;;;;;;4.40;1.40;;;;;;;15.71;50.71;100889.59;3560139;40;20061;-76
2021/06/21 00:55:10;;;;;;;2.05;1.08;;;;;;;15.70;51.89;100901.00;3565550;40;20049;-76
2021/06/21 00:57:39;;;;;;;3.60;1.50;;;;;;;15.65;51.97;100897.72;3568912;40;20110;-76
2021/06/21 01:00:14;;;;;;;3.28;1.42;;;;;;;15.59;51.46;100897.94;3561209;40;20065;-76
2021/06/21 01:02:43;;;;;;;3.80;1.30;;;;;;;15.59;52.71;100905.84;3560929;40;20065;-76
2021/06/21 01:05:18;;;;;;;2.72;1.10;;;;;;;15.53;52.53;100913.97;3563487;40;20888;-76
2021/06/21 01:07:49;;;;;;;2.25;1.02;;;;;;;15.51;51.76;100921.06;3555042;40;20088;-76
2021/06/21 01:10:20;;;;;;;3.15;1.10;;;;;;;15.49;52.30;100917.66;3541313;40;20056;-76
2021/06/21 01:12:48;;;;;;;3.92;1.17;;;;;;;15.46;52.41;100920.38;3558068;40;20060;-77
2021/06/21 01:15:26;;;;;;;;;;;;;;;15.45;49.19;100921.31;3570309;40;20052;-76
2021/06/21 01:18:08;;;;;;;3.20;1.15;;;;;;;15.40;52.81;100918.84;3556162;40;19991;-75
2021/06/21 01:21:20;;;;;;;3.35;1.30;;;;;;;15.36;50.68;100913.78;3544588;40;20057;-76
2021/06/21 01:24:22;;;;;;;3.28;1.15;;;;;;;15.27;50.85;100912.38;3548916;40;20053;-76
2021/06/21 01:26:54;;;;;;;2.03;1.00;;;;;;;15.21;53.67;100902.94;3566997;40;20077;-76
2021/06/21 01:29:41;;;;;;;3.08;1.05;;;;;;;15.21;53.64;100915.25;3566517;40;20061;-76
2021/06/21 01:32:15;;;;;;;3.45;1.02;;;;;;;15.16;54.35;100910.16;3557241;40;20062;-76
2021/06/21 01:34:49;;;;;;;4.90;1.00;;;;;;;15.11;52.98;100909.47;3560799;40;20084;-76
2021/06/21 01:37:19;;;;;;;5.20;1.20;;;;;;;15.11;54.09;100916.50;3567396;40;20410;-76
2021/06/21 01:40:00;;;;;;;2.97;1.35;;;;;;;15.11;52.74;100914.75;3559623;40;20419;-76
2021/06/21 01:42:29;;;;;;;2.53;1.10;;;;;;;15.06;54.64;100908.78;3557998;40;20083;-76
2021/06/21 01:45:02;;;;;;;2.15;0.77;;;;;;;15.02;54.62;100909.81;3565484;40;20107;-76
2021/06/21 01:47:31;;;;;;;4.88;1.50;;;;;;;15.00;55.15;100914.25;3560602;40;20406;-76
2021/06/21 01:49:58;;;;;;;4.55;1.08;;;;;;;14.98;55.61;100916.09;3565413;40;20069;-76
2021/06/21 01:52:30;;;;;;;2.78;1.20;;;;;;;14.96;55.61;100917.94;3568652;40;20427;-76
2021/06/21 01:55:02;;;;;;;3.45;0.98;;;;;;;14.95;55.26;100908.31;3559083;40;20139;-76
2021/06/21 01:57:32;;;;;;;3.15;1.17;;;;;;;14.91;55.87;100909.38;3552053;40;20059;-77
2021/06/21 02:00:08;;;;;;;4.30;1.20;;;;;;;14.88;55.11;100904.22;3553625;40;20439;-76
2021/06/21 02:02:41;;;;;;;5.10;1.13;;;;;;;14.82;55.87;100904.44;3557519;40;20073;-76
2021/06/21 02:05:14;;;;;;;6.00;0.88;;;;;;;14.78;55.85;100904.56;3559020;40;20106;-77
2021/06/21 02:07:49;;;;;;;6.93;1.30;;;;;;;14.77;55.58;100905.47;3566557;40;20094;-76
2021/06/21 02:10:22;;;;;;;3.70;0.90;;;;;;;14.76;55.96;100905.53;3560449;40;20054;-76
2021/06/21 02:12:51;;;;;;;4.93;1.52;;;;;;;14.73;57.06;100913.53;3563798;40;20061;-76
2021/06/21 02:15:24;;;;;;;1.98;0.85;;;;;;;14.70;55.92;100906.63;3558914;40;20085;-76
2021/06/21 02:17:59;;;;;;;5.18;1.30;;;;;;;14.68;55.64;100904.94;3559704;40;20054;-76
2021/06/21 02:20:27;;;;;;;3.83;1.20;;;;;;;14.64;57.29;100905.97;3559629;40;20127;-77
2021/06/21 02:22:53;;;;;;;;;;;;;;;14.67;52.62;100906.72;3553922;40;21181;-76
2021/06/21 02:25:28;;;;;;;3.03;1.07;;;;;;;14.63;55.63;100909.50;3542956;40;20007;-76
2021/06/21 02:27:57;;;;;;;3.95;1.25;;;;;;;14.61;57.66;100912.22;3554611;40;20088;-75
2021/06/21 02:30:28;;;;;;;3.22;0.73;;;;;;;14.61;57.57;100913.97;3565408;40;20103;-76
2021/06/21 02:32:55;;;;;;;5.90;1.13;;;;;;;14.57;58.56;100922.88;3559116;40;20066;-76
2021/06/21 02:35:22;;;;;;;3.67;1.00;;;;;;;14.49;57.96;100913.47;3564414;40;20053;-76
2021/06/21 02:37:50;;;;;;;3.72;1.20;;;;;;;14.51;57.89;100916.06;3555793;40;20459;-76
2021/06/21 02:40:21;;;;;;;3.58;1.10;;;;;;;14.56;57.85;100922.03;3570523;40;20061;-76
2021/06/21 02:42:53;;;;;;;3.25;0.90;;;;;;;14.57;56.88;100921.09;3559929;40;20041;-76
2021/06/21 02:45:22;;;;;;;5.68;1.10;;;;;;;14.54;58.47;100910.69;3556168;40;20335;-76
2021/06/21 02:47:57;;;;;;;7.68;1.10;;;;;;;14.57;57.12;100921.09;3553939;40;20464;-76
2021/06/21 02:50:24;;;;;;;5.90;1.15;;;;;;;14.57;57.96;100920.25;3552961;40;20119;-76
2021/06/21 02:53:10;;;;;;;;;;;;;;;14.63;53.77;100928.75;3565670;40;20516;-75
2021/06/21 02:55:56;;;;;;;3.08;0.90;;;;;;;14.67;55.33;100925.13;3562391;40;19949;-76
2021/06/21 02:58:31;;;;;;;7.03;1.60;;;;;;;14.66;57.34;100927.81;3568889;40;20053;-76
2021/06/21 03:01:02;;;;;;;5.93;0.93;;;;;;;14.70;57.20;100932.91;3555280;40;20051;-76
2021/06/21 03:03:38;;;;;;;2.63;0.88;;;;;;;14.70;57.14;100930.28;3560833;40;20088;-76
2021/06/21 03:06:08;;;;;;;3.08;0.70;;;;;;;14.75;57.87;100941.50;3549531;40;20741;-76
2021/06/21 03:08:38;;;;;;;5.38;0.88;;;;;;;14.77;57.78;100944.06;3565792;40;20421;-76
2021/06/21 03:11:07;;;;;;;2.90;0.90;;;;;;;14.78;57.90;100948.38;3557582;40;20060;-76
2021/06/21 03:13:37;;;;;;;1.85;0.82;;;;;;;14.84;58.23;100949.94;3561060;40;20422;-76
2021/06/21 03:16:05;;;;;;;6.13;1.00;;;;;;;14.88;58.11;100956.81;3550778;40;20455;-76
2021/06/21 03:18:36;;;;;;;4.78;0.75;;;;;;;14.92;57.11;100958.41;3561088;40;20049;-76
2021/06/21 03:21:05;;;;;;;6.40;1.40;;;;;;;14.93;57.60;100965.38;3556006;40;20401;-76
2021/06/21 03:23:38;;;;;;;3.13;0.85;;;;;;;14.97;56.91;100961.72;3556688;40;20414;-76
2021/06/21 03:26:05;;;;;;;2.45;0.90;;;;;;;14.97;57.48;100956.47;3552263;40;20053;-76
2021/06/21 03:28:33;;;;;;;5.80;0.98;;;;;;;15.00;57.61;100961.59;3560480;40;20065;-76
2021/06/21 03:31:04;;;;;;;4.20;0.80;;;;;;;15.02;57.31;100965.91;3564655;40;20779;-76
2021/06/21 03:33:39;;;;;;;2.50;0.80;;;;;;;15.10;56.06;100973.50;3556186;40;20053;-76
2021/06/21 03:36:07;;;;;;;4.40;0.73;;;;;;;15.11;57.08;100972.59;3554053;40;20120;-76
2021/06/21 03:38:35;;;;;;;3.63;1.10;;;;;;;15.12;57.31;100971.69;3562797;40;20054;-76
2021/06/21 03:41:03;;;;;;;3.13;0.68;;;;;;;15.15;56.75;100982.06;3551575;40;20756;-76
2021/06/21 03:43:33;;;;;;;2.58;1.02;;;;;;;15.14;56.77;100975.09;3567737;40;20077;-76
2021/06/21 03:46:04;;;;;;;3.10;0.80;;;;;;;15.20;56.48;100980.13;3566168;40;20062;-76
2021/06/21 03:48:32;;;;;;;3.55;0.82;;;;;;;15.20;56.74;100979.28;3556259;40;20057;-76
2021/06/21 03:51:01;;;;;;;;;;;;;;;15.24;53.46;100987.00;3553367;40;20096;-76
2021/06/21 03:53:28;;;;;;;6.97;0.70;;;;;;;15.22;56.17;100988.84;3550375;40;20347;-76
2021/06/21 03:55:55;;;;;;;;;;;;;;;15.24;53.02;100987.00;3563726;40;20057;-76
2021/06/21 03:58:28;;;;;;;2.05;0.60;;;;;;;15.20;55.26;100995.91;3566631;40;19972;-75
2021/06/21 04:00:56;;;;;;;1.77;0.60;;;;;;;15.20;56.35;101006.44;3561632;40;20132;-75
2021/06/21 04:03:28;;;;;;;2.58;0.70;;;;;;;15.20;55.66;101000.31;3564533;40;20057;-76
2021/06/21 04:05:57;;;;;;;2.92;0.55;;;;;;;15.18;56.08;101003.03;3556151;40;20190;-75
2021/06/21 04:08:25;;;;;;;3.03;0.75;;;;;;;15.16;56.66;101004.88;3566878;40;20434;-76
2021/06/21 04:10:56;;;;;;;1.58;0.52;;;;;;;15.18;55.80;101008.28;3557486;40;20077;-76
2021/06/21 04:13:28;;;;;;;4.07;1.13;;;;;;;15.14;56.14;101009.31;3558314;40;20077;-76
2021/06/21 04:15:59;;;;;;;1.63;0.55;;;;;;;15.16;56.21;101014.53;3566890;40;20061;-76
2021/06/21 04:18:26;;;;;;;5.30;0.80;;;;;;;15.10;56.82;101015.59;3563519;40;20431;-76
2021/06/21 04:20:53;;;;;;;2.63;0.82;;;;;;;15.09;56.55;101003.34;3567089;40;20053;-76
2021/06/21 04:23:31;;;;;;;4.47;1.08;;;;;;;15.14;55.05;101016.34;3562654;40;20717;-76
2021/06/21 04:25:59;;;;;;;1.85;0.73;;;;;;;15.11;56.05;101017.31;3554687;40;20064;-76
2021/06/21 04:28:28;;;;;;;1.88;0.68;;;;;;;15.12;56.09;101018.19;3569768;40;20041;-76
2021/06/21 04:30:55;;;;;;;2.17;0.65;;;;;;;15.09;56.43;101019.13;3568274;40;20708;-76
2021/06/21 04:33:24;;;;;;;4.43;0.80;;;;;;;15.10;56.25;101031.38;3556936;40;20041;-76
2021/06/21 04:35:55;;;;;;;3.15;0.60;;;;;;;15.13;55.50;101041.78;3561411;40;20065;-76
2021/06/21 04:38:23;;;;;;;1.13;0.45;;;;;;;15.07;56.44;101031.50;3565055;40;20486;-76
2021/06/21 04:40:52;;;;;;;5.22;0.90;;;;;;;15.12;55.74;101040.06;3565223;40;20433;-76
2021/06/21 04:43:20;;;;;;;2.28;0.63;;;;;;;15.08;55.83;101038.47;3551413;40;20125;-76
2021/06/21 04:45:50;;;;;;;2.90;0.70;;;;;;;15.09;55.47;101040.19;3559327;40;20052;-76
2021/06/21 04:48:17;;;;;;;3.42;0.93;;;;;;;15.02;56.02;101043.94;3565134;40;20058;-76
2021/06/21 04:50:44;;;;;;;5.93;1.10;;;;;;;14.95;55.93;101034.53;3563947;40;20064;-76
2021/06/21 04:53:13;;;;;;;5.63;0.70;;;;;;;15.03;56.23;101045.66;3558891;40;20066;-76
2021/06/21 04:55:41;;;;;;;3.95;0.70;;;;;;;15.00;56.21;101043.13;3560536;40;20053;-76
2021/06/21 04:58:09;;;;;;;5.38;0.90;;;;;;;14.99;55.76;101049.31;3573187;40;20106;-76
2021/06/21 05:00:39;;;;;;;4.30;0.95;;;;;;;14.96;55.62;101039.78;3567197;40;20109;-76
2021/06/21 05:03:12;;;;;;;4.30;0.73;;;;;;;14.95;55.00;101037.16;3560417;40;20065;-76
2021/06/21 05:05:39;;;;;;;4.38;1.33;;;;;;;14.93;55.76;101050.38;3553703;40;20281;-76
2021/06/21 05:08:33;;;;;;;5.05;1.00;;;;;;;14.94;53.94;101048.63;3565918;40;20474;-76
2021/06/21 05:11:08;;;;;;;3.78;1.02;;;;;;;14.87;54.78;101039.25;3547920;40;20159;-75
2021/06/21 05:13:35;;;;;;;3.00;0.73;;;;;;;14.80;55.97;101041.22;3558607;40;20057;-76
2021/06/21 05:16:02;;;;;;;3.72;1.13;;;;;;;14.81;55.92;101049.97;3570687;40;20045;-76
2021/06/21 05:18:30;;;;;;;4.28;1.35;;;;;;;14.82;55.70;101054.31;3572052;40;20061;-76
2021/06/21 05:21:02;;;;;;;;;;;;;;;14.84;52.87;101057.72;3553276;40;20107;-76
2021/06/21 05:23:30;;;;;;;3.05;0.90;;;;;;;14.77;55.66;101054.47;3572178;40;20005;-76
2021/06/21 05:25:59;;;;;;;2.28;0.70;;;;;;;14.77;55.33;101060.56;3565186;40;20071;-76
2021/06/21 05:28:26;;;;;;;3.08;0.95;;;;;;;14.68;55.54;101055.63;3558788;40;20057;-76
2021/06/21 05:30:54;;;;;;;4.53;0.90;;;;;;;14.68;55.71;101058.25;3566574;40;20053;-77
2021/06/21 05:33:21;;;;;;;;;;;;;;;14.73;52.79;101069.47;3557493;40;20055;-76
2021/06/21 05:35:48;;;;;;;;;;;;;;;14.71;52.55;101073.94;3566473;40;19992;-77
2021/06/21 05:38:21;;;;;;;4.40;1.55;;;;;;;14.66;54.77;101067.97;3562859;40;19934;-76
2021/06/21 05:41:14;;;;;;;9.50;2.20;;;;;;;14.68;53.66;101087.19;3551470;40;20104;-76
2021/06/21 05:43:51;;;;;;;6.70;1.42;;;;;;;14.61;55.68;101080.41;3559236;40;20130;-76
2021/06/21 05:46:20;;;;;;;5.32;1.20;;;;;;;14.60;55.67;101094.47;3561532;40;20142;-76
2021/06/21 05:49:16;;;;;;;3.90;1.23;;;;;;;14.64;54.04;101101.31;3570370;40;20131;-77
2021/06/21 05:51:47;;;;;;;2.10;1.10;;;;;;;14.60;55.46;101094.47;3566421;40;20392;-76
2021/06/21 05:54:14;;;;;;;2.88;1.17;;;;;;;14.60;56.10;101094.47;3563126;40;20111;-76
2021/06/21 05:56:48;;;;;;;4.72;1.00;;;;;;;14.65;55.20;101108.31;3559370;40;20067;-77
2021/06/21 05:59:15;;;;;;;4.05;1.20;;;;;;;14.65;55.80;101107.44;3557227;40;20061;-76
2021/06/21 06:01:44;;;;;;;4.90;1.02;;;;;;;14.66;55.51;101112.66;3566252;40;20049;-76
2021/06/21 06:04:11;;;;;;;3.88;1.17;;;;;;;14.65;55.86;101107.44;3552764;40;20089;-76
2021/06/21 06:06:38;;;;;;;9.63;1.55;;;;;;;14.67;55.65;101109.13;3564569;40;20721;-75
2021/06/21 06:09:05;;;;;;;5.85;1.40;;;;;;;14.67;55.65;101101.22;3568779;40;20049;-77
2021/06/21 06:11:32;;;;;;;4.43;1.30;;;;;;;14.69;55.63;101101.16;3565336;40;20075;-76
2021/06/21 06:14:00;;;;;;;3.30;1.27;;;;;;;14.70;55.59;101106.41;3560431;40;20074;-76
2021/06/21 06:16:34;;;;;;;;;;;;;;;14.78;52.82;101122.75;3570932;40;20052;-76
2021/06/21 06:19:01;;;;;;;5.30;1.27;;;;;;;14.69;55.37;101114.31;3545951;40;19941;-76
2021/06/21 06:21:30;;;;;;;1.95;1.02;;;;;;;14.72;55.55;101108.97;3581266;40;20056;-76
2021/06/21 06:23:58;;;;;;;2.47;1.15;;;;;;;14.76;55.43;101116.72;3576312;40;20395;-76
2021/06/21 06:26:25;;;;;;;5.55;1.33;;;;;;;14.76;55.57;101115.84;3560081;40;20500;-76
2021/06/21 06:29:00;;;;;;;5.60;1.73;;;;;;;14.81;54.77;101118.34;3560077;40;20179;-76
2021/06/21 06:32:20;;;;;;;6.85;1.55;;;;;;;14.86;53.66;101126.91;3558127;40;20076;-76
2021/06/21 06:34:48;;;;;;;4.70;1.60;;;;;;;14.84;55.48;101126.09;3556741;40;20092;-76
2021/06/21 06:37:16;;;;;;;4.97;1.70;;;;;;;14.84;54.83;101128.72;3571307;40;20038;-76
2021/06/21 06:39:51;;;;;;;5.93;1.65;;;;;;;14.83;54.57;101117.34;3560376;40;20061;-76
2021/06/21 06:42:19;;;;;;;4.50;1.50;;;;;;;14.84;54.82;101128.72;3559153;40;20112;-77
2021/06/21 06:44:46;;;;;;;6.03;1.63;;;;;;;14.83;55.25;101127.88;3563382;40;20053;-76
2021/06/21 06:47:16;;;;;;;6.22;2.10;;;;;;;14.86;55.01;101138.28;3553689;40;20062;-76
2021/06/21 06:49:50;;;;;;;6.90;1.50;;;;;;;14.88;54.63;101135.59;3553588;40;20506;-76
2021/06/21 06:52:25;;;;;;;7.97;1.65;;;;;;;14.88;54.57;101135.59;3552495;40;20065;-76
2021/06/21 06:57:40;;;;;;;5.32;1.80;;;;;;;14.87;54.97;101139.16;3559345;40;20065;-76
2021/06/21 07:00:11;;;;;;;4.70;1.50;;;;;;;14.94;54.68;101141.50;3564703;40;20857;-77
2021/06/21 07:02:41;;;;;;;5.60;2.05;;;;;;;14.91;55.12;101143.41;3563731;40;20120;-77
2021/06/21 07:05:11;;;;;;;5.82;1.77;;;;;;;14.96;54.97;101154.63;3565180;40;21045;-77
2021/06/21 07:07:45;;;;;;;4.95;1.63;;;;;;;14.99;54.64;101154.50;3568077;40;20045;-77
2021/06/21 07:10:13;;;;;;;6.63;1.90;;;;;;;14.99;55.25;101149.25;3564736;40;20110;-77
2021/06/21 07:12:40;;;;;;;4.32;1.60;;;;;;;15.05;55.23;101157.81;3568066;40;22656;-77
2021/06/21 07:15:09;;;;;;;4.77;1.70;;;;;;;15.09;54.68;101150.66;3562245;40;20061;-77
2021/06/21 07:17:44;;;;;;;4.38;1.60;;;;;;;15.17;54.30;101153.91;3559572;40;20057;-77
2021/06/21 07:20:12;;;;;;;5.68;1.65;;;;;;;15.22;54.65;101157.22;3554541;40;20069;-77
2021/06/21 07:22:39;;;;;;;;;;;;;;;15.30;52.57;101155.16;3571181;40;20061;-77
2021/06/21 07:25:30;;;;;;;8.63;2.00;;;;;;;15.37;53.06;101166.34;3567852;40;19945;-77
2021/06/21 07:27:57;;;;;;;5.43;1.65;;;;;;;15.36;54.43;101158.50;3568908;40;20063;-77
2021/06/21 07:30:24;;;;;;;5.57;2.07;;;;;;;15.44;53.69;101172.25;3571869;40;20133;-77
2021/06/21 07:32:51;;;;;;;7.13;2.20;;;;;;;15.44;53.28;101161.72;3564669;40;20037;-77
2021/06/21 07:35:18;;;;;;;7.10;2.15;;;;;;;15.50;53.05;101170.25;3568869;40;20052;-77
2021/06/21 07:37:47;;;;;;;6.47;2.20;;;;;;;15.54;52.82;101174.50;3551977;40;20064;-77
2021/06/21 07:40:15;;;;;;;5.38;1.90;;;;;;;15.57;53.16;101173.53;3562588;40;20115;-77
2021/06/21 07:42:44;;;;;;;6.15;2.10;;;;;;;15.63;52.94;101178.63;3560237;40;20065;-77
2021/06/21 07:45:13;;;;;;;6.68;2.25;;;;;;;15.70;52.44;101182.72;3568160;40;20807;-77
2021/06/21 07:47:41;;;;;;;5.82;2.30;;;;;;;15.67;52.28;101172.34;3563188;40;20442;-77
2021/06/21 07:50:09;;;;;;;6.95;2.30;;;;;;;15.81;52.36;101183.22;3566908;40;20057;-77
2021/06/21 07:52:36;;;;;;;7.65;2.67;;;;;;;15.86;52.06;101169.88;3569956;40;20138;-77
2021/06/21 07:55:05;;;;;;;5.72;2.10;;;;;;;15.98;52.01;101173.84;3565827;40;20435;-78
2021/06/21 07:57:34;;;;;;;6.35;1.70;;;;;;;16.12;51.62;101176.81;3569296;40;20075;-77
2021/06/21 08:00:03;;;;;;;6.93;2.33;;;;;;;16.21;51.16;101173.81;3559245;40;20050;-77
2021/06/21 08:02:41;;;;;;;7.40;2.60;;;;;;;16.39;51.04;101195.09;3559236;40;20061;-78
2021/06/21 08:05:08;;;;;;;5.80;2.22;;;;;;;16.49;50.71;101199.09;3554779;40;20997;-78
2021/06/21 08:07:36;;;;;;;8.02;2.40;;;;;;;16.59;49.93;101182.00;3562635;40;20061;-78
2021/06/21 08:10:03;;;;;;;;;;;;;;;16.83;50.11;101194.22;3558548;40;20065;-77
2021/06/21 08:12:30;;;;;;;;;;;;;;;16.98;49.95;101202.41;3563647;40;20324;-77
2021/06/21 08:14:58;;;;;;;5.80;2.13;;;;;;;17.02;49.08;101202.22;3555028;40;19960;-78
2021/06/21 08:17:27;;;;;;;6.43;2.25;;;;;;;17.12;49.17;101197.44;3553717;40;20063;-77
2021/06/21 08:19:54;;;;;;;5.63;2.13;;;;;;;17.21;49.17;101202.31;3566013;40;20427;-78
2021/06/21 08:22:21;;;;;;;8.23;2.88;;;;;;;17.27;49.02;101207.34;3567721;40;20479;-77
2021/06/21 08:24:56;;;;;;;8.20;2.90;;;;;;;17.42;48.77;101203.19;3566080;40;20536;-77
2021/06/21 08:27:23;;;;;;;8.00;1.98;;;;;;;17.47;47.30;101192.44;3560570;40;20444;-78
2021/06/21 08:29:50;;;;;;;7.25;2.60;;;;;;;17.63;46.09;101204.03;3561435;40;20088;-77
2021/06/21 08:32:24;;;;;;;9.68;2.80;;;;;;;17.78;46.68;101206.03;3561242;40;20744;-77
2021/06/21 08:34:51;;;;;;;7.82;2.75;;;;;;;17.85;45.56;101211.91;3547414;40;20143;-77
2021/06/21 08:37:20;;;;;;;8.25;2.78;;;;;;;17.95;46.78;101220.28;3560785;40;20058;-78
2021/06/21 08:39:50;;;;;;;5.63;2.67;;;;;;;18.05;45.64;101213.66;3560145;40;20061;-78
2021/06/21 08:42:21;;;;;;;7.80;2.42;;;;;;;18.24;45.48;101211.00;3566748;40;20085;-78
2021/06/21 08:45:13;;;;;;;5.93;2.85;;;;;;;18.47;45.96;101228.44;3566245;40;20061;-78
2021/06/21 08:47:46;;;;;;;6.05;2.85;;;;;;;18.59;45.54;101212.00;3569754;40;20073;-78
2021/06/21 08:50:17;;;;;;;7.07;3.05;;;;;;;18.72;44.60;101222.88;3554253;40;20063;-78
2021/06/21 08:52:46;;;;;;;5.95;2.47;;;;;;;18.81;43.23;101220.66;3561708;40;20064;-77
2021/06/21 08:55:15;;;;;;;6.78;2.28;;;;;;;18.93;42.60;101214.75;3569279;40;20084;-78
2021/06/21 08:57:49;;;;;;;6.75;2.30;;;;;;;19.07;43.52;101229.09;3560347;40;20124;-78
2021/06/21 09:00:18;;;;;;;6.43;2.22;;;;;;;19.10;42.62;101232.44;3552552;40;20069;-78
2021/06/21 09:02:59;;;;;;;6.18;2.13;;;;;;;19.23;43.59;101230.03;3577133;40;20054;-77
2021/06/21 09:05:26;;;;;;;6.68;2.25;;;;;;;19.27;41.73;101226.31;3564266;40;20085;-78
2021/06/21 09:08:05;;;;;;;6.32;2.00;;;;;;;19.51;43.62;101223.31;3565303;40;20099;-78
2021/06/21 09:11:02;;;;;;;7.85;2.30;;;;;;;19.71;43.32;101239.06;3564122;40;20069;-77
2021/06/21 09:13:31;;;;;;;;;;;;;;;19.90;43.99;101231.03;3567434;40;20158;-77
2021/06/21 09:15:58;;;;;;;5.28;2.10;;;;;;;19.85;39.46;101223.31;3565481;40;20310;-78
2021/06/21 09:18:39;;;;;;;6.25;1.92;;;;;;;20.02;39.26;101234.81;3569299;40;20081;-78
2021/06/21 09:21:32;;;;;;;10.27;2.63;;;;;;;20.15;40.54;101235.88;3560904;40;20336;-78
2021/06/21 09:24:16;;;;;;;7.60;2.50;;;;;;;20.14;40.65;101234.16;3562225;40;20084;-77
2021/06/21 09:26:45;;;;;;;5.90;2.28;;;;;;;20.18;39.99;101230.41;3568128;40;20107;-78
2021/06/21 09:29:14;;;;;;;6.07;2.42;;;;;;;20.20;38.40;101223.22;3566537;40;20414;-78
2021/06/21 09:31:53;;;;;;;5.85;2.00;;;;;;;20.41;39.93;101227.34;3568915;40;20091;-78
2021/06/21 09:34:26;;;;;;;6.82;2.28;;;;;;;20.56;38.40;101230.13;3553279;40;20111;-78
2021/06/21 09:37:18;;;;;;;5.78;2.22;;;;;;;20.81;39.17;101227.78;3565946;40;20734;-78
2021/06/21 09:39:50;;;;;;;7.50;2.35;;;;;;;20.94;37.46;101235.91;3570121;40;20114;-78
2021/06/21 09:42:23;;;;;;;5.30;2.05;;;;;;;21.07;36.36;101230.75;3552124;40;20558;-78
2021/06/21 09:44:55;;;;;;;5.47;2.10;;;;;;;21.18;35.24;101223.84;3560698;40;20374;-78
2021/06/21 09:47:38;;;;;;;7.18;2.65;;;;;;;21.61;37.32;101221.34;3566288;40;20073;-78
2021/06/21 09:50:11;;;;;;;6.53;2.40;;;;;;;21.94;35.85;101237.00;3556690;40;20115;-78
2021/06/21 09:52:50;;;;;;;6.38;2.20;;;;;;;22.34;36.21;101223.91;3561795;40;20110;-78
2021/06/21 09:55:39;;;;;;;8.18;2.22;;;;;;;22.72;35.94;101234.75;3559782;40;20120;-78
2021/06/21 09:58:07;;;;;;;7.00;2.63;;;;;;;23.03;32.79;101235.44;3559693;40;20053;-79
2021/06/21 10:00:49;;;;;;;5.53;2.22;;;;;;;23.40;32.50;101233.81;3565003;40;20312;-78
2021/06/21 10:03:21;;;;;;;10.18;2.72;;;;;;;23.69;32.42;101223.00;3562971;40;20057;-78
2021/06/21 10:06:00;;;;;;;12.20;3.00;;;;;;;23.95;33.61;101227.38;3563159;40;20069;-78
2021/06/21 10:08:48;;;;;;;6.07;2.80;;;;;;;24.28;34.44;101236.59;3550085;40;20073;-78
2021/06/21 10:11:40;;;;;;;5.78;2.40;;;;;;;24.63;33.80;101226.06;3555009;40;20462;-78
2021/06/21 10:14:10;;;;;;;5.78;2.47;;;;;;;24.88;30.54;101225.09;3551021;40;20072;-78
2021/06/21 10:16:38;;;;;;;7.05;2.50;;;;;;;25.22;30.01;101234.13;3565457;40;20049;-79
2021/06/21 10:19:08;;;;;;;7.72;3.40;;;;;;;25.59;28.63;101237.50;3556460;40;20153;-78
2021/06/21 10:21:38;;;;;;;5.80;2.65;;;;;;;25.94;29.36;101235.78;3560381;40;20091;-79
2021/06/21 10:24:05;;;;;;;7.63;2.70;;;;;;;26.27;28.30;101237.59;3562902;40;20136;-79
2021/06/21 10:26:33;;;;;;;10.27;3.08;;;;;;;26.70;28.34;101239.50;3563240;40;20049;-79
2021/06/21 10:29:03;;;;;;;8.60;2.72;;;;;;;27.21;29.53;101249.56;3549567;40;20426;-78
2021/06/21 10:31:32;;;;;;;8.52;3.08;;;;;;;27.49;26.85;101240.91;3562767;40;20053;-79
2021/06/21 10:34:01;;;;;;;7.68;3.00;;;;;;;27.89;25.47;101237.50;3564071;40;20049;-79
2021/06/21 10:36:54;;;;;;;7.88;3.58;;;;;;;28.41;28.83;101252.53;3563012;40;20049;-79
2021/06/21 10:39:28;;;;;;;7.85;3.15;;;;;;;28.67;26.93;101243.97;3564287;40;20069;-79
2021/06/21 10:42:05;;;;;;;8.63;3.25;;;;;;;28.98;26.70;101251.97;3546380;40;20110;-79
2021/06/21 10:44:50;;;;;;;7.55;3.30;;;;;;;29.25;26.70;101248.56;3553738;40;20337;-79
2021/06/21 10:47:35;;;;;;;6.55;3.35;;;;;;;29.66;27.30;101250.97;3549813;40;20057;-79
2021/06/21 10:50:05;;;;;;;7.32;3.47;;;;;;;29.90;24.50;101249.59;3547806;40;20367;-79
2021/06/21 10:52:36;;;;;;;8.65;4.05;;;;;;;30.19;24.26;101246.81;3560230;40;20128;-79
2021/06/21 10:55:21;;;;;;;13.55;4.35;;;;;;;30.61;25.95;101252.53;3554658;40;20081;-79
2021/06/21 10:57:54;;;;;;;6.72;3.58;;;;;;;30.84;22.74;101254.84;3560772;40;20050;-80
2021/06/21 11:00:42;;;;;;;7.68;3.75;;;;;;;31.11;23.47;101241.25;3562216;40;20065;-79
2021/06/21 11:03:34;;;;;;;9.82;4.13;;;;;;;31.50;24.83;101254.44;3563826;40;20057;-79
2021/06/21 11:06:28;;;;;;;11.18;5.53;;;;;;;31.72;23.73;101259.28;3554707;40;20099;-79
2021/06/21 11:08:56;;;;;;;8.65;3.70;;;;;;;31.88;21.11;101252.31;3562532;40;20389;-79
2021/06/21 11:11:36;;;;;;;8.65;3.88;;;;;;;32.36;23.40;101248.22;3554565;40;20081;-79
2021/06/21 11:14:14;;;;;;;11.32;4.25;;;;;;;32.64;22.23;101259.59;3558599;40;20055;-80
2021/06/21 11:16:44;;;;;;;10.50;4.70;;;;;;;32.81;19.97;101261.34;3547389;40;20112;-79
2021/06/21 11:19:13;;;;;;;8.93;4.35;;;;;;;33.17;19.74;101263.78;3563058;40;20456;-80
2021/06/21 11:21:47;;;;;;;8.70;4.10;;;;;;;33.50;19.84;101259.22;3560006;40;20346;-79
2021/06/21 11:24:35;;;;;;;8.70;4.68;;;;;;;33.98;22.09;101257.47;3566321;40;20065;-80
2021/06/21 11:27:11;;;;;;;8.65;4.18;;;;;;;34.18;19.88;101258.75;3557597;40;20124;-80
2021/06/21 11:29:42;;;;;;;8.75;4.28;;;;;;;34.49;19.79;101266.09;3552393;40;20064;-80
2021/06/21 11:32:10;;;;;;;10.18;3.92;;;;;;;34.73;17.97;101244.25;3556405;40;20093;-80
2021/06/21 11:34:53;;;;;;;7.55;3.75;;;;;;;35.23;20.10;101277.31;3549189;40;20062;-80
2021/06/21 11:37:38;;;;;;;12.43;4.13;;;;;;;35.45;19.64;101278.34;3546581;40;20128;-79
2021/06/21 11:40:26;;;;;;;7.95;4.10;;;;;;;35.61;17.98;101270.03;3544969;40;20084;-80
2021/06/21 11:42:56;;;;;;;8.00;3.53;;;;;;;35.68;18.06;101270.97;3553617;40;20097;-80
2021/06/21 11:45:56;;;;;;;10.68;3.80;;;;;;;35.94;19.75;101269.72;3541594;40;20065;-80
2021/06/21 11:48:30;;;;;;;10.10;3.63;;;;;;;36.06;18.32;101276.38;3557121;40;20061;-80
2021/06/21 11:51:17;;;;;;;9.40;4.32;;;;;;;36.27;19.34;101278.31;3559871;40;20066;-80
2021/06/21 11:53:46;;;;;;;10.13;4.60;;;;;;;36.23;16.32;101275.13;3554002;40;20143;-80